createdAt,value
2022-10-11T00:00:46.679Z,101771.34
2022-10-11T00:04:08.107Z,101770.94
2022-10-11T00:07:29.249Z,101777.78
2022-10-11T00:10:58.233Z,101787.81
2022-10-11T00:14:19.423Z,101797.63
2022-10-11T00:17:42.571Z,101801.06
2022-10-11T00:21:06.204Z,101813.56
2022-10-11T00:24:27.485Z,101818.38
2022-10-11T00:27:48.858Z,101829.38
2022-10-11T00:31:12.135Z,101834.84
2022-10-11T00:34:35.342Z,101829.59
2022-10-11T00:37:57.665Z,101837.59
2022-10-11T00:41:19.495Z,101841.22
2022-10-11T00:44:43.945Z,101841.69
2022-10-11T00:48:12.848Z,101846.59
2022-10-11T00:51:44.331Z,101862.06
2022-10-11T00:55:08.960Z,101853.88
2022-10-11T00:58:30.868Z,101860.94
2022-10-11T01:01:52.319Z,101862.00
2022-10-11T01:05:32.229Z,101861.47
2022-10-11T01:08:55.574Z,101870.88
2022-10-11T01:12:20.493Z,101871.81
2022-10-11T01:15:48.667Z,101880.44
2022-10-11T01:19:30.078Z,101881.59
2022-10-11T01:23:21.568Z,101890.91
2022-10-11T01:27:05.561Z,101895.03
2022-10-11T01:30:30.320Z,101898.84
2022-10-11T01:33:55.718Z,101895.66
2022-10-11T01:37:24.814Z,101903.09
2022-10-11T01:40:50.301Z,101912.75
2022-10-11T01:44:13.735Z,101910.31
2022-10-11T01:47:36.758Z,101910.59
2022-10-11T01:51:01.772Z,101919.06
2022-10-11T01:55:08.132Z,101913.38
2022-10-11T01:58:39.307Z,101918.16
2022-10-11T02:02:11.762Z,101915.97
2022-10-11T02:05:42.223Z,101920.94
2022-10-11T02:09:10.243Z,101929.88
2022-10-11T02:12:38.741Z,101928.19
2022-10-11T02:16:03.640Z,101942.63
2022-10-11T02:19:31.217Z,101936.19
2022-10-11T02:23:00.819Z,101945.13
2022-10-11T02:26:24.633Z,101946.84
2022-10-11T02:29:48.489Z,101942.56
2022-10-11T02:33:14.391Z,101953.59
2022-10-11T02:36:44.069Z,101950.16
2022-10-11T02:40:12.244Z,101955.00
2022-10-11T02:43:38.627Z,101957.09
2022-10-11T02:50:23.945Z,101964.41
2022-10-11T02:53:45.698Z,101967.25
2022-10-11T02:57:08.365Z,101973.44
2022-10-11T03:00:29.734Z,101973.81
2022-10-11T03:03:51.690Z,101988.06
2022-10-11T03:07:13.799Z,101982.84
2022-10-11T03:10:35.271Z,101989.28
2022-10-11T03:13:58.209Z,101992.22
2022-10-11T03:17:35.597Z,101995.81
2022-10-11T03:20:58.173Z,102004.94
2022-10-11T03:24:19.925Z,102013.09
2022-10-11T03:27:41.198Z,102016.72
2022-10-11T03:31:04.490Z,102016.13
2022-10-11T03:34:26.007Z,102027.78
2022-10-11T03:37:47.615Z,102037.59
2022-10-11T03:41:09.566Z,102043.16
2022-10-11T03:44:31.225Z,102043.25
2022-10-11T03:47:53.939Z,102048.47
2022-10-11T03:51:16.094Z,102052.94
2022-10-11T03:54:37.431Z,102052.19
2022-10-11T03:57:58.789Z,102056.72
2022-10-11T04:01:20.248Z,102055.78
2022-10-11T04:04:43.450Z,102058.81
2022-10-11T04:08:08.503Z,102065.03
2022-10-11T04:11:33.143Z,102063.06
2022-10-11T04:14:54.390Z,102073.00
2022-10-11T04:18:16.181Z,102080.16
2022-10-11T04:21:38.801Z,102084.88
2022-10-11T04:25:00.646Z,102090.94
2022-10-11T04:28:22.031Z,102090.25
2022-10-11T04:31:43.700Z,102093.50
2022-10-11T04:35:05.800Z,102097.88
2022-10-11T04:38:28.710Z,102101.34
2022-10-11T04:41:50.378Z,102104.75
2022-10-11T04:45:11.891Z,102112.88
2022-10-11T04:48:33.426Z,102111.00
2022-10-11T04:51:54.801Z,102111.69
2022-10-11T04:55:17.846Z,102122.25
2022-10-11T04:58:41.531Z,102120.59
2022-10-11T05:02:03.134Z,102123.50
2022-10-11T05:05:25.192Z,102132.34
2022-10-11T05:08:46.754Z,102132.41
2022-10-11T05:12:10.003Z,102138.63
2022-10-11T05:15:31.305Z,102144.28
2022-10-11T05:18:53.334Z,102150.38
2022-10-11T05:22:14.644Z,102157.22
2022-10-11T05:25:36.050Z,102160.47
2022-10-11T05:28:59.135Z,102171.03
2022-10-11T05:32:20.765Z,102169.13
2022-10-11T05:35:42.652Z,102172.31
2022-10-11T05:39:04.194Z,102183.00
2022-10-11T05:42:26.056Z,102184.22
2022-10-11T05:45:49.159Z,102185.16
2022-10-11T05:49:10.947Z,102187.63
2022-10-11T05:52:32.267Z,102193.72
2022-10-11T05:55:53.627Z,102202.41
2022-10-11T05:59:15.215Z,102199.97
2022-10-11T06:02:38.258Z,102212.66
2022-10-11T06:06:03.416Z,102211.56
2022-10-11T06:09:24.934Z,102207.00
2022-10-11T06:12:46.389Z,102216.09
2022-10-11T06:16:08.401Z,102216.38
2022-10-11T06:19:31.593Z,102225.63
2022-10-11T06:22:53.058Z,102226.25
2022-10-11T06:26:14.903Z,102230.84
2022-10-11T06:29:37.012Z,102231.88
2022-10-11T06:33:02.395Z,102238.91
2022-10-11T06:36:27.708Z,102245.16
2022-10-11T06:39:48.963Z,102249.88
2022-10-11T06:43:10.792Z,102254.75
2022-10-11T06:46:33.339Z,102248.31
2022-10-11T06:49:54.819Z,102253.75
2022-10-11T06:53:17.885Z,102260.94
2022-10-11T06:56:39.103Z,102274.72
2022-10-11T07:00:00.945Z,102270.34
2022-10-11T07:03:22.775Z,102275.34
2022-10-11T07:06:44.046Z,102285.03
2022-10-11T07:10:08.557Z,102286.41
2022-10-11T07:13:30.175Z,102287.25
2022-10-11T07:16:51.501Z,102287.78
2022-10-11T07:20:13.600Z,102296.44
2022-10-11T07:23:35.910Z,102296.13
2022-10-11T07:26:58.913Z,102300.22
2022-10-11T07:30:20.211Z,102298.91
2022-10-11T07:33:42.124Z,102308.19
2022-10-11T07:37:03.574Z,102314.22
2022-10-11T07:40:25.388Z,102315.22
2022-10-11T07:43:49.786Z,102316.47
2022-10-11T07:47:11.502Z,102319.72
2022-10-11T07:50:34.577Z,102318.25
2022-10-11T07:53:58.116Z,102317.84
2022-10-11T07:57:19.255Z,102324.59
2022-10-11T08:00:42.726Z,102326.16
2022-10-11T08:04:04.433Z,102330.28
2022-10-11T08:07:26.294Z,102331.59
2022-10-11T08:10:47.863Z,102332.53
2022-10-11T08:14:11.297Z,102336.91
2022-10-11T08:17:33.957Z,102337.56
2022-10-11T08:20:55.250Z,102328.22
2022-10-11T08:24:20.651Z,102333.66
2022-10-11T08:27:41.908Z,102340.50
2022-10-11T08:31:04.217Z,102340.34
2022-10-11T08:34:27.029Z,102345.38
2022-10-11T08:37:49.008Z,102346.84
2022-10-11T08:41:30.317Z,102345.44
2022-10-11T08:45:10.464Z,102350.31
2022-10-11T08:48:36.422Z,102358.16
2022-10-11T08:52:04.440Z,102357.97
2022-10-11T08:55:33.263Z,102354.63
2022-10-11T08:59:00.378Z,102357.41
2022-10-11T09:03:06.518Z,102359.78
2022-10-11T09:06:42.567Z,102355.34
2022-10-11T09:10:22.975Z,102368.81
2022-10-11T09:14:14.625Z,102372.72
2022-10-11T09:17:48.612Z,102371.66
2022-10-11T09:21:20.837Z,102380.25
2022-10-11T09:24:58.875Z,102388.84
2022-10-11T09:28:29.142Z,102385.59
2022-10-11T09:31:54.978Z,102377.03
2022-10-11T09:35:19.583Z,102378.06
2022-10-11T09:38:47.190Z,102387.59
2022-10-11T09:42:10.045Z,102382.94
2022-10-11T09:45:32.825Z,102387.69
2022-10-11T09:48:56.986Z,102374.72
2022-10-11T09:52:20.758Z,102377.38
2022-10-11T09:55:51.807Z,102373.94
2022-10-11T09:59:26.713Z,102374.19
2022-10-11T10:02:51.173Z,102375.13
2022-10-11T10:06:17.439Z,102375.50
2022-10-11T10:09:38.979Z,102379.50
2022-10-11T10:13:02.901Z,102370.25
2022-10-11T10:16:27.257Z,102389.19
2022-10-11T10:19:52.691Z,102392.28
2022-10-11T10:23:22.792Z,102388.53
2022-10-11T10:27:20.999Z,102385.56
2022-10-11T10:30:52.835Z,102397.47
2022-10-11T10:34:19.274Z,102393.44
2022-10-11T10:37:44.993Z,102390.34
2022-10-11T10:41:10.515Z,102400.41
2022-10-11T10:44:33.959Z,102400.97
2022-10-11T10:48:15.345Z,102411.69
2022-10-11T10:51:47.752Z,102399.31
2022-10-11T10:55:27.604Z,102400.41
2022-10-11T10:59:05.461Z,102411.28
2022-10-11T11:02:40.583Z,102402.41
2022-10-11T11:06:06.129Z,102392.69
2022-10-11T11:09:41.849Z,102391.53
2022-10-11T11:13:18.891Z,102399.78
2022-10-11T11:16:46.213Z,102391.75
2022-10-11T11:20:25.719Z,102388.06
2022-10-11T11:23:54.281Z,102387.03
2022-10-11T11:27:27.824Z,102385.22
2022-10-11T11:30:58.943Z,102392.06
2022-10-11T11:34:25.017Z,102385.09
2022-10-11T11:37:51.089Z,102396.31
2022-10-11T11:41:21.834Z,102392.06
2022-10-11T11:44:47.954Z,102383.50
2022-10-11T11:48:16.930Z,102379.19
2022-10-11T11:51:42.472Z,102377.81
2022-10-11T11:55:12.202Z,102374.94
2022-10-11T11:58:41.844Z,102383.91
2022-10-11T12:02:22.206Z,102379.59
2022-10-11T12:06:20.500Z,102374.69
2022-10-11T12:09:44.563Z,102372.19
2022-10-11T12:13:19.024Z,102371.97
2022-10-11T12:17:15.650Z,102363.16
2022-10-11T12:20:40.833Z,102375.81
2022-10-11T12:24:10.541Z,102387.53
2022-10-11T12:27:38.207Z,102374.00
2022-10-11T12:31:07.964Z,102373.16
2022-10-11T12:34:35.786Z,102379.81
2022-10-11T12:38:14.448Z,102377.44
2022-10-11T12:41:53.642Z,102378.09
2022-10-11T12:45:31.201Z,102382.19
2022-10-11T12:49:01.610Z,102379.81
2022-10-11T12:52:29.893Z,102375.19
2022-10-11T12:55:59.318Z,102376.06
2022-10-11T12:59:24.142Z,102371.69
2022-10-11T13:02:45.869Z,102372.81
2022-10-11T13:06:18.390Z,102376.00
2022-10-11T13:09:46.584Z,102369.25
2022-10-11T13:13:21.708Z,102375.97
2022-10-11T13:16:50.868Z,102374.59
2022-10-11T13:20:19.555Z,102376.09
2022-10-11T13:23:42.699Z,102380.13
2022-10-11T13:27:06.097Z,102383.38
2022-10-11T13:30:31.589Z,102380.84
2022-10-11T13:33:56.086Z,102387.41
2022-10-11T13:37:19.523Z,102383.03
2022-10-11T13:40:42.198Z,102388.31
2022-10-11T13:44:04.609Z,102385.06
2022-10-11T13:47:30.454Z,102376.81
2022-10-11T13:51:08.689Z,102377.09
2022-10-11T13:54:58.840Z,102380.81
2022-10-11T13:58:28.469Z,102377.66
2022-10-11T14:01:54.166Z,102376.69
2022-10-11T14:05:24.636Z,102373.59
2022-10-11T14:08:50.191Z,102367.66
2022-10-11T14:12:33.544Z,102367.78
2022-10-11T14:16:09.007Z,102367.66
2022-10-11T14:19:30.628Z,102383.34
2022-10-11T14:22:52.982Z,102360.72
2022-10-11T14:26:18.747Z,102367.06
2022-10-11T14:30:00.256Z,102371.22
2022-10-11T14:33:27.756Z,102378.31
2022-10-11T14:36:50.428Z,102367.13
2022-10-11T14:40:15.118Z,102377.16
2022-10-11T14:43:36.621Z,102378.88
2022-10-11T14:46:57.953Z,102377.38
2022-10-11T14:50:29.558Z,102379.09
2022-10-11T14:53:51.468Z,102372.19
2022-10-11T14:57:13.498Z,102383.13
2022-10-11T15:00:35.611Z,102383.94
2022-10-11T15:03:57.359Z,102382.34
2022-10-11T15:07:20.523Z,102384.25
2022-10-11T15:10:42.441Z,102385.78
2022-10-11T15:14:03.866Z,102387.13
2022-10-11T15:17:25.441Z,102387.88
2022-10-11T15:20:47.795Z,102387.28
2022-10-11T15:24:11.029Z,102381.47
2022-10-11T15:27:32.310Z,102382.00
2022-10-11T15:30:53.957Z,102384.66
2022-10-11T15:34:15.441Z,102392.72
2022-10-11T15:37:37.542Z,102382.44
2022-10-11T15:41:00.679Z,102386.56
2022-10-11T15:44:21.995Z,102385.53
2022-10-11T15:47:43.888Z,102385.50
2022-10-11T15:51:05.301Z,102396.16
2022-10-11T15:54:26.804Z,102392.53
2022-10-11T15:57:49.387Z,102401.63
2022-10-11T16:01:14.343Z,102394.47
2022-10-11T16:04:36.139Z,102399.00
2022-10-11T16:07:57.263Z,102402.44
2022-10-11T16:11:18.955Z,102400.84
2022-10-11T16:14:46.280Z,102403.59
2022-10-11T16:18:11.086Z,102408.94
2022-10-11T16:21:32.339Z,102409.81
2022-10-11T16:24:54.354Z,102409.03
2022-10-11T16:28:15.952Z,102408.16
2022-10-11T16:31:38.911Z,102409.97
2022-10-11T16:35:00.578Z,102411.72
2022-10-11T16:38:22.282Z,102410.81
2022-10-11T16:41:44.521Z,102417.91
2022-10-11T16:45:08.241Z,102422.22
2022-10-11T16:48:31.205Z,102416.81
2022-10-11T16:51:54.891Z,102425.63
2022-10-11T16:55:16.632Z,102426.38
2022-10-11T16:58:38.550Z,102429.69
2022-10-11T17:02:00.029Z,102432.19
2022-10-11T17:05:22.727Z,102438.09
2022-10-11T17:08:44.600Z,102435.31
2022-10-11T17:12:07.035Z,102436.06
2022-10-11T17:15:30.056Z,102438.41
2022-10-11T17:18:51.651Z,102434.47
2022-10-11T17:22:16.782Z,102434.16
2022-10-11T17:25:42.682Z,102443.59
2022-10-11T17:29:04.274Z,102437.94
2022-10-11T17:32:25.555Z,102442.06
2022-10-11T17:35:47.348Z,102439.84
2022-10-11T17:39:14.639Z,102450.91
2022-10-11T17:42:35.848Z,102458.47
2022-10-11T17:45:58.207Z,102453.66
2022-10-11T17:49:19.502Z,102455.03
2022-10-11T17:52:41.403Z,102453.66
2022-10-11T17:56:07.734Z,102453.31
2022-10-11T17:59:30.614Z,102451.06
2022-10-11T18:02:53.512Z,102456.88
2022-10-11T18:06:16.760Z,102460.81
2022-10-11T18:09:38.350Z,102462.94
2022-10-11T18:13:05.742Z,102458.88
2022-10-11T18:16:30.227Z,102459.28
2022-10-11T18:19:51.652Z,102459.72
2022-10-11T18:23:13.405Z,102460.03
2022-10-11T18:26:35.095Z,102472.63
2022-10-11T18:29:58.344Z,102468.56
2022-10-11T18:33:19.865Z,102471.63
2022-10-11T18:36:41.747Z,102475.44
2022-10-11T18:40:03.738Z,102471.22
2022-10-11T18:43:25.022Z,102466.22
2022-10-11T18:46:48.386Z,102464.66
2022-10-11T18:50:10.305Z,102463.16
2022-10-11T18:53:31.891Z,102457.06
2022-10-11T18:56:53.760Z,102462.47
2022-10-11T19:00:38.965Z,102468.00
2022-10-11T19:04:00.940Z,102462.06
2022-10-11T19:07:23.738Z,102461.19
2022-10-11T19:10:45.342Z,102462.13
2022-10-11T19:14:09.872Z,102456.13
2022-10-11T19:17:31.089Z,102458.06
2022-10-11T19:20:53.643Z,102456.50
2022-10-11T19:24:14.979Z,102456.59
2022-10-11T19:27:36.224Z,102453.22
2022-10-11T19:31:05.199Z,102452.44
2022-10-11T19:34:28.635Z,102451.81
2022-10-11T19:37:51.471Z,102464.41
2022-10-11T19:41:14.071Z,102461.19
2022-10-11T19:44:38.706Z,102460.38
2022-10-11T19:48:01.170Z,102464.97
2022-10-11T19:51:24.273Z,102471.38
2022-10-11T19:54:47.097Z,102474.16
2022-10-11T19:58:08.911Z,102479.56
2022-10-11T20:01:32.188Z,102476.81
2022-10-11T20:04:54.031Z,102475.03
2022-10-11T20:08:15.624Z,102481.13
2022-10-11T20:11:38.495Z,102481.19
2022-10-11T20:14:59.737Z,102476.69
2022-10-11T20:18:20.988Z,102470.38
2022-10-11T20:21:42.416Z,102466.63
2022-10-11T20:25:03.901Z,102466.44
2022-10-11T20:28:28.064Z,102468.94
2022-10-11T20:31:49.730Z,102465.41
2022-10-11T20:35:11.652Z,102469.09
2022-10-11T20:38:34.576Z,102482.22
2022-10-11T20:41:56.175Z,102471.50
2022-10-11T20:45:18.786Z,102479.41
2022-10-11T20:48:41.153Z,102482.75
2022-10-11T20:52:02.525Z,102482.69
2022-10-11T20:55:24.163Z,102480.81
2022-10-11T20:58:46.542Z,102482.56
2022-10-11T21:02:15.371Z,102477.06
2022-10-11T21:05:39.751Z,102478.69
2022-10-11T21:09:01.816Z,102479.47
2022-10-11T21:12:23.600Z,102482.91
2022-10-11T21:15:44.921Z,102479.41
2022-10-11T21:19:07.430Z,102480.19
2022-10-11T21:22:28.596Z,102480.97
2022-10-11T21:25:49.873Z,102483.31
2022-10-11T21:29:11.078Z,102484.09
2022-10-11T21:32:32.797Z,102489.25
2022-10-11T21:35:55.626Z,102490.13
2022-10-11T21:39:17.042Z,102497.06
2022-10-11T21:42:38.818Z,102494.34
2022-10-11T21:46:00.754Z,102495.19
2022-10-11T21:49:22.068Z,102500.44
2022-10-11T21:52:44.766Z,102491.44
2022-10-11T21:56:06.738Z,102493.16
2022-10-11T21:59:28.349Z,102494.09
2022-10-11T22:02:49.430Z,102487.94
2022-10-11T22:06:11.076Z,102489.66
2022-10-11T22:09:34.972Z,102493.09
2022-10-11T22:12:57.069Z,102487.78
2022-10-11T22:16:18.457Z,102495.75
2022-10-11T22:19:39.896Z,102494.66
2022-10-11T22:23:01.279Z,102491.94
2022-10-11T22:26:25.714Z,102501.63
2022-10-11T22:29:47.211Z,102496.16
2022-10-11T22:33:08.515Z,102492.41
2022-10-11T22:36:30.897Z,102490.59
2022-10-11T22:39:52.431Z,102489.59
2022-10-11T22:43:15.093Z,102485.06
2022-10-11T22:46:36.398Z,102493.75
2022-10-11T22:49:57.543Z,102493.75
2022-10-11T22:53:19.803Z,102485.78
2022-10-11T22:56:41.469Z,102489.22
2022-10-11T23:00:05.336Z,102482.03
2022-10-11T23:03:26.856Z,102477.47
2022-10-11T23:06:48.573Z,102480.94
2022-10-11T23:10:10.636Z,102483.47
2022-10-11T23:13:32.229Z,102487.97
2022-10-11T23:16:54.957Z,102481.59
2022-10-11T23:20:16.432Z,102485.91
2022-10-11T23:23:39.601Z,102482.31
2022-10-11T23:27:01.173Z,102482.22
2022-10-11T23:30:22.309Z,102483.03
2022-10-11T23:33:45.758Z,102482.16
2022-10-11T23:37:07.215Z,102481.31
2022-10-11T23:40:28.860Z,102480.38
2022-10-11T23:43:50.152Z,102475.91
2022-10-11T23:47:11.778Z,102482.16
2022-10-11T23:50:34.330Z,102481.22
2022-10-11T23:53:55.454Z,102483.88
2022-10-11T23:57:16.677Z,102484.81
